Time;durP1;ratioP1;P1;durP2;ratioP2;P2;SDS_P1;SDS_P2;PMS_P1;PMS_P2;Temp;Humidity;BMP_temperature;BMP_pressure;BME280_temperature;BME280_humidity;BME280_pressure;Samples;Min_cycle;Max_cycle;Signal;HPM_P1;HPM_P2
2022/05/17 00:02:07;;;;;;;13.73;7.50;;;15.90;99.90;;;;;;5060836;28;20089;-45
2022/05/17 00:04:34;;;;;;;14.63;9.05;;;15.90;99.90;;;;;;5059179;28;20092;-46
2022/05/17 00:07:00;;;;;;;13.15;7.35;;;15.80;99.90;;;;;;5057970;28;20424;-46
2022/05/17 00:09:26;;;;;;;17.00;6.80;;;15.80;99.90;;;;;;5053619;28;20035;-45
2022/05/17 00:11:52;;;;;;;22.05;6.65;;;15.80;99.90;;;;;;5052318;28;20037;-46
2022/05/17 00:14:18;;;;;;;11.70;7.82;;;15.80;99.90;;;;;;5053628;28;20065;-47
2022/05/17 00:16:45;;;;;;;15.05;7.28;;;15.70;99.90;;;;;;5064967;28;20040;-46
2022/05/17 00:19:13;;;;;;;13.15;6.78;;;15.70;99.90;;;;;;5053832;28;20044;-46
2022/05/17 00:21:39;;;;;;;13.52;6.80;;;15.70;99.90;;;;;;5051202;28;20048;-46
2022/05/17 00:24:05;;;;;;;15.98;6.88;;;15.60;99.90;;;;;;5061332;28;20520;-46
2022/05/17 00:26:34;;;;;;;;;;;15.60;99.90;;;;;;5059398;28;20029;-46
2022/05/17 00:29:00;;;;;;;19.10;7.20;;;15.60;99.90;;;;;;5052897;28;20016;-45
2022/05/17 00:31:26;;;;;;;16.50;7.43;;;15.50;99.90;;;;;;5057015;28;20041;-45
2022/05/17 00:33:53;;;;;;;12.18;7.25;;;15.60;99.90;;;;;;5066321;28;20126;-46
2022/05/17 00:36:19;;;;;;;15.50;6.75;;;15.60;99.90;;;;;;5056503;28;20079;-45
2022/05/17 00:38:45;;;;;;;12.00;6.53;;;15.60;99.90;;;;;;5064684;28;20535;-46
2022/05/17 00:41:11;;;;;;;16.08;8.10;;;15.50;99.90;;;;;;5056575;28;20166;-46
2022/05/17 00:46:50;;;;;;;21.88;7.05;;;15.50;99.90;;;;;;5068197;28;20076;-46
2022/05/17 00:49:24;;;;;;;8.90;6.00;;;15.40;99.90;;;;;;5064064;28;20036;-46
2022/05/17 00:51:51;;;;;;;14.65;6.60;;;15.40;99.90;;;;;;5061370;28;20067;-47
2022/05/17 00:54:17;;;;;;;13.20;6.20;;;15.40;99.90;;;;;;5056337;28;20553;-45
2022/05/17 00:56:48;;;;;;;;;;;15.30;99.90;;;;;;5056773;28;20055;-45
2022/05/17 00:59:14;;;;;;;9.05;5.20;;;15.30;99.90;;;;;;5058289;28;20007;-45
2022/05/17 01:01:40;;;;;;;10.30;5.25;;;15.20;99.90;;;;;;5056501;28;20127;-44
2022/05/17 01:04:09;;;;;;;14.10;6.13;;;15.10;99.90;;;;;;5063284;28;20043;-46
2022/05/17 01:07:01;;;;;;;15.07;4.97;;;15.10;99.90;;;;;;5060413;28;20036;-46
2022/05/17 01:09:27;;;;;;;14.70;6.05;;;15.10;99.90;;;;;;5057431;28;20079;-46
2022/05/17 01:11:52;;;;;;;13.13;6.25;;;15.00;99.90;;;;;;5063677;28;20086;-45
2022/05/17 01:17:04;;;;;;;12.05;5.97;;;15.00;99.90;;;;;;5054598;28;20041;-45
2022/05/17 01:19:29;;;;;;;13.30;6.72;;;14.90;99.90;;;;;;5066550;28;20037;-46
2022/05/17 01:21:55;;;;;;;14.30;7.05;;;14.90;99.90;;;;;;5056363;28;20114;-46
2022/05/17 01:24:21;;;;;;;18.27;6.53;;;14.90;99.90;;;;;;5060434;28;20072;-46
2022/05/17 01:26:53;;;;;;;12.48;5.97;;;14.90;99.90;;;;;;5064693;28;20058;-46
2022/05/17 01:29:18;;;;;;;11.73;5.70;;;14.90;99.90;;;;;;5064910;28;20033;-45
2022/05/17 01:31:44;;;;;;;12.38;5.38;;;14.80;99.90;;;;;;5055248;28;20025;-45
2022/05/17 01:34:10;;;;;;;17.55;6.35;;;14.80;99.90;;;;;;5072360;28;20426;-46
2022/05/17 01:36:37;;;;;;;18.10;7.25;;;14.70;99.90;;;;;;5068843;28;20044;-45
2022/05/17 01:39:04;;;;;;;13.57;7.07;;;14.70;99.90;;;;;;5054603;28;20053;-46
2022/05/17 01:41:30;;;;;;;14.57;6.88;;;14.70;99.90;;;;;;5063296;28;20048;-46
2022/05/17 01:43:56;;;;;;;9.45;6.07;;;14.70;99.90;;;;;;5052827;28;20041;-46
2022/05/17 01:46:22;;;;;;;14.73;5.63;;;14.70;99.90;;;;;;5059220;28;20379;-46
2022/05/17 01:48:48;;;;;;;12.20;6.18;;;14.70;99.90;;;;;;5064260;28;20440;-45
2022/05/17 01:51:14;;;;;;;15.18;6.30;;;14.60;99.90;;;;;;5057952;28;20086;-46
2022/05/17 01:53:39;;;;;;;14.07;7.40;;;14.60;99.90;;;;;;5070557;28;20036;-46
2022/05/17 01:56:07;;;;;;;14.35;6.35;;;14.60;99.90;;;;;;5063257;28;20040;-45
2022/05/17 01:58:34;;;;;;;11.63;6.25;;;14.60;99.90;;;;;;5065597;28;20044;-46
2022/05/17 02:01:00;;;;;;;17.77;7.60;;;14.60;99.90;;;;;;5058967;28;20065;-46
2022/05/17 02:03:25;;;;;;;13.70;5.72;;;14.60;99.90;;;;;;5070922;28;20565;-46
2022/05/17 02:05:51;;;;;;;14.93;6.80;;;14.50;99.90;;;;;;5060312;28;20133;-46
2022/05/17 02:08:18;;;;;;;14.30;6.97;;;14.50;99.90;;;;;;5062445;28;20500;-45
2022/05/17 02:10:44;;;;;;;17.85;7.80;;;14.50;99.90;;;;;;5064688;28;20045;-45
2022/05/17 02:13:10;;;;;;;16.25;7.35;;;14.50;99.90;;;;;;5058707;28;20051;-45
2022/05/17 02:15:36;;;;;;;16.55;7.28;;;14.50;99.90;;;;;;5068286;28;20046;-45
2022/05/17 02:18:02;;;;;;;14.40;6.53;;;14.50;99.90;;;;;;5069780;28;20048;-46
2022/05/17 02:20:28;;;;;;;14.52;8.02;;;14.50;99.90;;;;;;5068968;28;20465;-45
2022/05/17 02:22:53;;;;;;;12.07;6.88;;;14.50;99.90;;;;;;5063025;28;20403;-45
2022/05/17 02:25:19;;;;;;;14.88;7.65;;;14.40;99.90;;;;;;5066155;28;20498;-47
2022/05/17 02:27:44;;;;;;;14.32;6.95;;;14.40;99.90;;;;;;5061174;28;20452;-45
2022/05/17 02:30:12;;;;;;;23.38;7.97;;;14.40;99.90;;;;;;5051095;28;20033;-46
2022/05/17 02:32:38;;;;;;;16.40;6.70;;;14.40;99.90;;;;;;5070567;28;20036;-46
2022/05/17 02:35:06;;;;;;;13.05;6.30;;;14.40;99.90;;;;;;5053892;28;20041;-45
2022/05/17 02:37:31;;;;;;;16.30;6.85;;;14.40;99.90;;;;;;5051309;28;20517;-45
2022/05/17 02:39:57;;;;;;;14.60;7.97;;;14.40;99.90;;;;;;5052819;28;20041;-45
2022/05/17 02:42:22;;;;;;;12.68;6.90;;;14.40;99.90;;;;;;5067218;28;20036;-45
2022/05/17 02:44:48;;;;;;;12.40;6.28;;;14.40;99.90;;;;;;5056448;28;20037;-45
2022/05/17 02:47:14;;;;;;;16.10;7.18;;;14.40;99.90;;;;;;5063339;28;20536;-45
2022/05/17 02:49:40;;;;;;;;;;;14.40;99.90;;;;;;5061570;28;20033;-45
2022/05/17 02:52:07;;;;;;;12.20;6.13;;;14.30;99.90;;;;;;5055537;28;19923;-45
2022/05/17 02:54:33;;;;;;;12.52;5.88;;;14.30;99.90;;;;;;5051762;28;20048;-45
2022/05/17 02:56:59;;;;;;;16.20;6.85;;;14.30;99.90;;;;;;5060159;28;20138;-45
2022/05/17 02:59:25;;;;;;;17.20;7.32;;;14.20;99.90;;;;;;5053106;28;20036;-47
2022/05/17 03:01:50;;;;;;;15.15;6.47;;;14.20;99.90;;;;;;5056304;28;20049;-45
2022/05/17 03:04:16;;;;;;;13.48;7.15;;;14.20;99.90;;;;;;5061046;28;20037;-45
2022/05/17 03:06:44;;;;;;;18.40;7.28;;;14.20;99.90;;;;;;5055741;28;20511;-46
2022/05/17 03:09:10;;;;;;;16.40;6.90;;;14.20;99.90;;;;;;5070846;28;20394;-47
2022/05/17 03:11:37;;;;;;;15.80;6.72;;;14.20;99.90;;;;;;5057452;28;20044;-45
2022/05/17 03:14:03;;;;;;;11.50;6.72;;;14.10;99.90;;;;;;5050431;28;20055;-46
2022/05/17 03:16:30;;;;;;;15.15;6.65;;;14.10;99.90;;;;;;5055555;28;20040;-45
2022/05/17 03:18:56;;;;;;;14.52;6.28;;;14.10;99.90;;;;;;5049298;28;20120;-45
2022/05/17 03:21:22;;;;;;;11.27;6.45;;;14.00;99.90;;;;;;5065155;28;20147;-44
2022/05/17 03:23:47;;;;;;;12.07;6.32;;;14.00;99.90;;;;;;5056661;28;20512;-46
2022/05/17 03:26:13;;;;;;;15.43;6.68;;;13.90;99.90;;;;;;5063439;28;20036;-45
2022/05/17 03:28:38;;;;;;;17.95;7.50;;;13.90;99.90;;;;;;5061855;28;20036;-47
2022/05/17 03:31:08;;;;;;;11.15;6.32;;;13.90;99.90;;;;;;5055399;28;20029;-46
2022/05/17 03:33:34;;;;;;;12.40;5.97;;;13.90;99.90;;;;;;5054512;28;20036;-45
2022/05/17 03:35:59;;;;;;;10.18;5.95;;;13.80;99.90;;;;;;5058234;28;20029;-45
2022/05/17 03:38:25;;;;;;;16.48;6.80;;;13.80;99.90;;;;;;5065213;28;20077;-45
2022/05/17 03:40:52;;;;;;;14.50;6.03;;;13.80;99.90;;;;;;5056632;28;20041;-45
2022/05/17 03:43:19;;;;;;;19.75;7.82;;;13.70;99.90;;;;;;5068426;28;20354;-45
2022/05/17 03:45:45;;;;;;;15.27;6.80;;;13.70;99.90;;;;;;5057215;28;20035;-46
2022/05/17 03:48:11;;;;;;;14.25;7.13;;;13.70;99.90;;;;;;5051831;28;20049;-45
2022/05/17 03:50:37;;;;;;;12.40;6.97;;;13.60;99.90;;;;;;5061826;28;20043;-46
2022/05/17 03:53:03;;;;;;;17.52;6.50;;;13.70;99.90;;;;;;5051315;28;20114;-45
2022/05/17 03:55:29;;;;;;;13.88;6.47;;;13.70;99.90;;;;;;5061250;28;20044;-46
2022/05/17 03:57:55;;;;;;;13.57;7.20;;;13.70;99.90;;;;;;5053487;28;20119;-45
2022/05/17 04:00:21;;;;;;;20.33;7.93;;;13.70;99.90;;;;;;5054703;28;20043;-45
2022/05/17 04:02:47;;;;;;;15.30;7.40;;;13.70;99.90;;;;;;5050787;28;20043;-46
2022/05/17 04:05:13;;;;;;;17.63;6.97;;;13.80;99.90;;;;;;5057575;28;20516;-45
2022/05/17 04:07:38;;;;;;;14.38;6.18;;;13.80;99.90;;;;;;5069085;28;20123;-45
2022/05/17 04:10:07;;;;;;;14.15;6.75;;;13.80;99.90;;;;;;5063761;28;20504;-46
2022/05/17 04:12:33;;;;;;;11.95;6.43;;;13.80;99.90;;;;;;5057931;28;20056;-47
2022/05/17 04:14:58;;;;;;;12.30;6.65;;;13.80;99.90;;;;;;5053438;28;20032;-45
2022/05/17 04:17:24;;;;;;;15.88;6.57;;;13.80;99.90;;;;;;5052932;28;20530;-45
2022/05/17 04:19:50;;;;;;;16.38;7.70;;;13.80;99.90;;;;;;5053021;28;20059;-46
2022/05/17 04:22:15;;;;;;;16.77;7.65;;;13.90;99.90;;;;;;5061371;28;20518;-47
2022/05/17 04:24:41;;;;;;;19.23;8.65;;;14.00;99.90;;;;;;5052934;28;20037;-46
2022/05/17 04:27:08;;;;;;;17.08;6.80;;;14.10;99.90;;;;;;5063260;28;20067;-46
2022/05/17 04:29:34;;;;;;;19.55;7.25;;;14.10;99.90;;;;;;5056415;28;20449;-46
2022/05/17 04:31:59;;;;;;;21.17;8.45;;;14.20;99.90;;;;;;5055127;28;20024;-45
2022/05/17 04:34:25;;;;;;;19.83;7.65;;;14.20;99.90;;;;;;5062756;28;20142;-46
2022/05/17 04:36:50;;;;;;;16.40;6.68;;;14.30;99.90;;;;;;5057427;28;20489;-46
2022/05/17 04:39:16;;;;;;;13.10;6.13;;;14.40;99.90;;;;;;5056349;28;20115;-46
2022/05/17 04:41:43;;;;;;;16.48;6.03;;;14.40;99.90;;;;;;5059519;28;20166;-46
2022/05/17 04:44:09;;;;;;;18.17;6.43;;;14.50;99.90;;;;;;5053697;28;20045;-46
2022/05/17 04:46:34;;;;;;;13.63;6.50;;;14.50;99.90;;;;;;5059885;28;20041;-46
2022/05/17 04:49:00;;;;;;;12.63;6.80;;;14.60;99.90;;;;;;5054222;28;20029;-45
2022/05/17 04:51:27;;;;;;;15.00;6.40;;;14.70;99.90;;;;;;5054255;28;20128;-45
2022/05/17 04:53:52;;;;;;;16.77;6.60;;;14.70;99.90;;;;;;5065429;28;20044;-45
2022/05/17 04:56:19;;;;;;;14.25;5.65;;;14.80;99.90;;;;;;5054184;28;20431;-47
2022/05/17 04:58:45;;;;;;;17.25;6.80;;;14.80;99.90;;;;;;5065669;28;20125;-46
2022/05/17 05:01:10;;;;;;;16.00;5.78;;;14.90;99.90;;;;;;5061473;28;20123;-46
2022/05/17 05:03:36;;;;;;;13.55;6.15;;;14.90;99.90;;;;;;5056439;28;20036;-46
2022/05/17 05:06:02;;;;;;;18.83;7.35;;;15.00;99.90;;;;;;5056125;28;20067;-45
2022/05/17 05:08:28;;;;;;;16.77;7.05;;;15.10;99.90;;;;;;5064316;28;20381;-46
2022/05/17 05:10:53;;;;;;;17.35;6.82;;;15.10;99.90;;;;;;5058286;28;20390;-45
2022/05/17 05:13:21;;;;;;;19.15;6.15;;;15.20;99.90;;;;;;5052982;28;20037;-46
2022/05/17 05:15:47;;;;;;;14.63;6.38;;;15.30;99.90;;;;;;5068163;28;20497;-45
2022/05/17 05:18:13;;;;;;;10.85;5.95;;;15.40;99.90;;;;;;5055869;28;20091;-45
2022/05/17 05:20:39;;;;;;;13.68;6.25;;;15.50;99.90;;;;;;5069647;28;20033;-47
2022/05/17 05:23:05;;;;;;;14.02;5.93;;;15.50;99.90;;;;;;5067685;28;20086;-45
2022/05/17 05:25:30;;;;;;;;;;;15.60;99.90;;;;;;5066624;28;20041;-47
2022/05/17 05:27:56;;;;;;;13.55;5.38;;;15.60;99.90;;;;;;5061727;28;19917;-45
2022/05/17 05:30:22;;;;;;;17.20;6.18;;;15.70;99.90;;;;;;5063011;28;20513;-45
2022/05/17 05:32:47;;;;;;;14.60;6.38;;;15.70;99.90;;;;;;5060565;28;20184;-45
2022/05/17 05:35:18;;;;;;;14.93;6.38;;;15.70;99.90;;;;;;5061746;28;20114;-45
2022/05/17 05:37:44;;;;;;;14.88;6.20;;;15.80;99.90;;;;;;5058234;28;20563;-46
2022/05/17 05:40:11;;;;;;;13.32;5.63;;;15.80;99.90;;;;;;5060115;28;20040;-46
2022/05/17 05:42:38;;;;;;;13.52;6.35;;;15.90;99.90;;;;;;5057190;28;20041;-46
2022/05/17 05:45:04;;;;;;;19.55;5.85;;;15.90;99.90;;;;;;5046800;28;20056;-46
2022/05/17 05:47:30;;;;;;;17.38;6.70;;;16.00;99.90;;;;;;5054139;28;20037;-46
2022/05/17 05:49:55;;;;;;;14.60;5.78;;;16.10;99.90;;;;;;5055951;28;20052;-45
2022/05/17 05:52:21;;;;;;;16.15;6.65;;;16.20;99.90;;;;;;5056376;28;20128;-47
2022/05/17 05:54:47;;;;;;;14.02;5.82;;;16.30;99.90;;;;;;5058444;28;20047;-46
2022/05/17 05:57:13;;;;;;;17.60;6.03;;;16.40;99.90;;;;;;5062215;28;20393;-46
2022/05/17 05:59:38;;;;;;;13.68;5.93;;;16.50;99.90;;;;;;5055837;28;20094;-47
2022/05/17 06:02:05;;;;;;;14.88;5.53;;;16.50;99.90;;;;;;5064141;28;20052;-45
2022/05/17 06:04:31;;;;;;;8.25;5.20;;;16.50;99.90;;;;;;5066271;28;20047;-46
2022/05/17 06:06:57;;;;;;;10.25;6.05;;;16.50;99.90;;;;;;5057492;28;20482;-46
2022/05/17 06:09:24;;;;;;;11.20;5.65;;;16.50;99.90;;;;;;5062541;28;20508;-45
2022/05/17 06:11:49;;;;;;;15.88;6.20;;;16.50;99.90;;;;;;5052696;28;20033;-46
2022/05/17 06:14:16;;;;;;;12.05;7.10;;;16.50;99.90;;;;;;5066010;28;20036;-46
2022/05/17 06:16:41;;;;;;;;;;;16.50;99.90;;;;;;5056472;28;20041;-45
2022/05/17 06:19:07;;;;;;;15.75;6.60;;;16.60;99.90;;;;;;5068429;28;19920;-46
2022/05/17 06:21:32;;;;;;;15.35;5.72;;;16.60;99.90;;;;;;5051552;28;20517;-45
2022/05/17 06:23:58;;;;;;;18.33;5.97;;;16.70;99.90;;;;;;5052156;28;20045;-47
2022/05/17 06:26:24;;;;;;;13.68;5.63;;;16.80;99.90;;;;;;5065955;28;20040;-46
2022/05/17 06:28:50;;;;;;;17.50;5.85;;;16.80;99.90;;;;;;5063386;28;20082;-45
2022/05/17 06:31:15;;;;;;;12.73;5.38;;;16.80;99.90;;;;;;5065640;28;20040;-46
2022/05/17 06:33:41;;;;;;;15.98;6.30;;;16.90;99.90;;;;;;5070836;28;20510;-44
2022/05/17 06:36:06;;;;;;;10.93;6.03;;;17.00;99.90;;;;;;5058234;28;20041;-45
2022/05/17 06:38:32;;;;;;;9.00;4.90;;;17.10;99.90;;;;;;5065057;28;20029;-46
2022/05/17 06:40:58;;;;;;;14.32;6.07;;;17.10;99.90;;;;;;5063385;28;20402;-46
2022/05/17 06:43:24;;;;;;;11.85;4.88;;;17.10;99.90;;;;;;5069340;28;20037;-46
2022/05/17 06:45:50;;;;;;;;;;;17.20;99.90;;;;;;5060687;28;20045;-46
2022/05/17 06:48:15;;;;;;;11.10;5.72;;;17.20;99.90;;;;;;5058488;28;19931;-45
2022/05/17 06:50:50;;;;;;;8.48;4.72;;;17.20;99.90;;;;;;5058595;28;20037;-48
2022/05/17 06:53:16;;;;;;;16.25;5.95;;;17.30;99.90;;;;;;5043634;28;20537;-46
2022/05/17 06:55:42;;;;;;;17.30;5.95;;;17.30;99.90;;;;;;5043965;28;20041;-47
2022/05/17 06:58:08;;;;;;;;;;;17.40;99.90;;;;;;5061379;28;20455;-45
2022/05/17 07:00:34;;;;;;;10.50;5.57;;;17.50;99.90;;;;;;5051713;28;19917;-46
2022/05/17 07:03:00;;;;;;;14.27;5.75;;;17.60;99.90;;;;;;5054456;28;20285;-46
2022/05/17 07:05:27;;;;;;;11.25;5.13;;;17.70;99.90;;;;;;5059078;28;20040;-45
2022/05/17 07:07:53;;;;;;;18.45;5.65;;;17.70;99.90;;;;;;5064366;28;20036;-46
2022/05/17 07:13:09;;;;;;;11.70;4.70;;;17.90;99.90;;;;;;5049215;28;20295;-46
2022/05/17 07:15:40;;;;;;;13.73;4.90;;;18.00;99.90;;;;;;5050021;28;20040;-45
2022/05/17 07:18:06;;;;;;;10.90;5.45;;;18.10;99.90;;;;;;5054886;28;20089;-46
2022/05/17 07:20:32;;;;;;;22.52;6.55;;;18.10;99.90;;;;;;5060266;28;20044;-45
2022/05/17 07:22:58;;;;;;;11.23;5.07;;;18.10;99.90;;;;;;5053342;28;20393;-46
2022/05/17 07:25:24;;;;;;;13.00;5.50;;;18.10;99.90;;;;;;5054103;28;20274;-46
2022/05/17 07:27:49;;;;;;;12.30;4.88;;;18.20;99.90;;;;;;5051969;28;20036;-46
2022/05/17 07:30:15;;;;;;;16.52;5.47;;;18.30;99.90;;;;;;5057400;28;20025;-48
2022/05/17 07:32:41;;;;;;;16.80;5.85;;;18.40;99.90;;;;;;5050647;28;20396;-46
2022/05/17 07:35:07;;;;;;;13.85;5.05;;;18.40;99.90;;;;;;5055303;28;20131;-45
2022/05/17 07:37:33;;;;;;;;;;;18.50;99.90;;;;;;5058158;28;20029;-45
2022/05/17 07:39:59;;;;;;;14.73;5.82;;;18.50;99.90;;;;;;5056736;28;19916;-46
2022/05/17 07:42:25;;;;;;;10.48;5.63;;;18.60;99.90;;;;;;5058991;28;20033;-46
2022/05/17 07:44:51;;;;;;;13.38;5.03;;;18.70;99.90;;;;;;5056642;28;20037;-45
2022/05/17 07:47:16;;;;;;;12.80;5.97;;;18.70;99.90;;;;;;5055329;28;20040;-45
2022/05/17 07:49:42;;;;;;;13.60;4.90;;;18.80;99.90;;;;;;5052551;28;20604;-47
2022/05/17 07:52:10;;;;;;;13.77;5.03;;;18.90;99.90;;;;;;5053020;28;20517;-46
2022/05/17 07:54:37;;;;;;;11.60;4.75;;;19.00;99.90;;;;;;5054756;28;20032;-47
2022/05/17 07:57:06;;;;;;;14.18;5.78;;;19.00;99.90;;;;;;5073172;28;20060;-46
2022/05/17 07:59:32;;;;;;;8.50;4.75;;;19.10;99.90;;;;;;5052927;28;20040;-46
2022/05/17 08:01:57;;;;;;;17.40;6.00;;;19.20;99.90;;;;;;5054682;28;20043;-46
2022/05/17 08:04:28;;;;;;;14.55;4.43;;;19.30;99.90;;;;;;5060637;28;20044;-45
2022/05/17 08:06:54;;;;;;;12.95;6.22;;;19.40;99.90;;;;;;5050211;28;20091;-45
2022/05/17 08:09:20;;;;;;;;;;;19.50;99.90;;;;;;5048079;28;20442;-46
2022/05/17 08:11:45;;;;;;;9.35;4.53;;;19.50;99.90;;;;;;5051635;28;19923;-47
2022/05/17 08:14:11;;;;;;;12.23;5.25;;;19.60;99.90;;;;;;5058245;28;20135;-46
2022/05/17 08:16:37;;;;;;;10.25;5.35;;;19.70;99.90;;;;;;5059290;28;20446;-46
2022/05/17 08:19:03;;;;;;;;;;;19.70;99.90;;;;;;5050291;28;20036;-45
2022/05/17 08:21:29;;;;;;;13.60;3.97;;;19.80;99.90;;;;;;5062427;28;20479;-45
2022/05/17 08:23:54;;;;;;;12.75;3.83;;;19.80;99.90;;;;;;5063788;28;20044;-46
2022/05/17 08:29:04;;;;;;;10.30;4.45;;;19.80;99.90;;;;;;5047737;28;20417;-46
2022/05/17 08:31:30;;;;;;;13.52;5.40;;;19.90;99.90;;;;;;5060762;28;20143;-46
2022/05/17 08:33:55;;;;;;;13.38;5.18;;;20.00;99.90;;;;;;5060501;28;20040;-46
2022/05/17 08:36:21;;;;;;;;;;;20.20;99.90;;;;;;5053797;28;20266;-46
2022/05/17 08:38:48;;;;;;;13.70;5.18;;;20.20;99.90;;;;;;5064339;28;19916;-46
2022/05/17 08:41:31;;;;;;;9.88;4.80;;;20.20;99.90;;;;;;5056170;28;20033;-47
2022/05/17 08:43:59;;;;;;;12.38;4.68;;;20.30;99.90;;;;;;5045188;28;20033;-46
2022/05/17 08:46:38;;;;;;;15.50;4.05;;;20.40;99.90;;;;;;5051003;28;20028;-46
2022/05/17 08:49:22;;;;;;;10.27;4.82;;;20.60;99.90;;;;;;5061900;28;20060;-45
2022/05/17 08:52:02;;;;;;;10.18;4.85;;;20.60;99.90;;;;;;5046322;28;20033;-46
2022/05/17 08:54:38;;;;;;;11.52;4.28;;;20.70;99.90;;;;;;5052825;28;20047;-46
2022/05/17 08:57:48;;;;;;;11.18;4.38;;;20.80;99.90;;;;;;5061001;28;20052;-46
2022/05/17 09:00:24;;;;;;;8.23;2.60;;;20.90;99.90;;;;;;5058352;28;20040;-46
2022/05/17 09:03:34;;;;;;;11.35;3.42;;;21.00;99.90;;;;;;5059892;28;20047;-45
2022/05/17 09:06:13;;;;;;;8.18;2.38;;;21.00;99.90;;;;;;5042415;28;20414;-46
2022/05/17 09:09:06;;;;;;;11.00;2.72;;;21.10;99.90;;;;;;5046159;28;20097;-46
2022/05/17 09:11:48;;;;;;;13.68;3.35;;;21.20;99.90;;;;;;5046305;28;20052;-45
2022/05/17 09:14:22;;;;;;;9.20;2.72;;;21.40;99.90;;;;;;5055179;28;20029;-46
2022/05/17 09:16:59;;;;;;;10.20;3.13;;;21.50;99.90;;;;;;5057142;28;20109;-45
2022/05/17 09:19:26;;;;;;;8.43;2.38;;;21.70;99.50;;;;;;5046047;28;20066;-46
2022/05/17 09:21:53;;;;;;;10.35;3.35;;;21.80;99.20;;;;;;5059912;28;20041;-46
2022/05/17 09:24:21;;;;;;;7.70;3.00;;;21.70;98.60;;;;;;5063116;28;20052;-46
2022/05/17 09:26:51;;;;;;;8.43;3.03;;;21.70;98.60;;;;;;5050406;28;20041;-46
2022/05/17 09:29:20;;;;;;;10.63;2.65;;;21.80;98.00;;;;;;5045850;28;20021;-46
2022/05/17 09:32:01;;;;;;;9.57;3.10;;;21.90;98.60;;;;;;5053476;28;20024;-45
2022/05/17 09:34:33;;;;;;;9.70;2.58;;;22.00;97.20;;;;;;5064266;28;20401;-47
2022/05/17 09:37:10;;;;;;;9.13;2.85;;;22.00;97.60;;;;;;5070411;28;20043;-46
2022/05/17 09:39:35;;;;;;;9.88;2.80;;;22.00;96.90;;;;;;5049024;28;20056;-47
2022/05/17 09:42:05;;;;;;;;;;;21.90;97.80;;;;;;5048371;28;20037;-46
2022/05/17 09:44:33;;;;;;;14.10;4.00;;;22.00;97.70;;;;;;5063467;28;20457;-46
2022/05/17 09:47:05;;;;;;;12.40;3.55;;;21.90;97.10;;;;;;5067741;28;20115;-46
2022/05/17 09:52:35;;;;;;;9.20;2.95;;;21.90;97.60;;;;;;5062613;28;20526;-46
2022/05/17 09:55:21;;;;;;;8.90;3.17;;;22.00;97.30;;;;;;5058958;28;20091;-46
2022/05/17 09:58:07;;;;;;;10.52;3.00;;;22.10;97.70;;;;;;5062209;28;20044;-46
2022/05/17 10:00:33;;;;;;;10.15;2.65;;;22.30;96.50;;;;;;5049724;28;20464;-45
2022/05/17 10:03:00;;;;;;;;;;;22.30;97.40;;;;;;5049811;28;20045;-45
2022/05/17 10:05:40;;;;;;;;;;;22.40;95.70;;;;;;5053966;28;20355;-46
2022/05/17 10:08:24;;;;;;;8.88;1.73;;;22.40;95.50;;;;;;5050903;28;19916;-46
2022/05/17 10:11:14;;;;;;;6.25;1.27;;;22.50;94.70;;;;;;5059500;28;20082;-46
2022/05/17 10:13:45;;;;;;;11.25;1.88;;;22.50;94.70;;;;;;5045012;28;20561;-46
2022/05/17 10:16:22;;;;;;;8.52;1.75;;;22.40;95.00;;;;;;5051284;28;20064;-46
2022/05/17 10:19:03;;;;;;;9.82;2.60;;;22.40;95.10;;;;;;5050512;28;20045;-46
2022/05/17 10:21:38;;;;;;;8.90;2.03;;;22.50;95.80;;;;;;5062597;28;20571;-46
2022/05/17 10:24:33;;;;;;;9.98;2.28;;;22.40;95.10;;;;;;5056208;28;20127;-46
2022/05/17 10:27:09;;;;;;;8.70;1.52;;;22.40;94.60;;;;;;5062342;28;20083;-45
2022/05/17 10:29:54;;;;;;;;;;;22.40;94.40;;;;;;5058312;28;20025;-46
2022/05/17 10:32:41;;;;;;;12.35;2.50;;;22.40;94.70;;;;;;5054714;28;20499;-45
2022/05/17 10:35:32;;;;;;;11.63;3.28;;;22.40;95.30;;;;;;5052728;28;20037;-46
2022/05/17 10:38:11;;;;;;;13.98;3.90;;;22.30;95.30;;;;;;5058157;28;20399;-47
2022/05/17 10:40:43;;;;;;;10.90;2.70;;;22.20;95.50;;;;;;5063762;28;20048;-46
2022/05/17 10:43:15;;;;;;;11.57;3.50;;;22.10;94.80;;;;;;5059501;28;20401;-46
2022/05/17 10:45:44;;;;;;;9.02;3.25;;;22.00;95.20;;;;;;5058318;28;20454;-45
2022/05/17 10:48:51;;;;;;;11.02;3.88;;;21.90;95.80;;;;;;5058542;28;20032;-47
2022/05/17 10:51:34;;;;;;;9.68;3.85;;;21.80;95.80;;;;;;5057552;28;20433;-45
2022/05/17 10:54:21;;;;;;;12.25;4.68;;;21.70;96.20;;;;;;5045828;28;20560;-46
2022/05/17 10:57:11;;;;;;;10.63;4.43;;;21.60;96.00;;;;;;5052500;28;20037;-45
2022/05/17 10:59:58;;;;;;;13.32;4.25;;;21.50;96.50;;;;;;5054081;28;20482;-46
2022/05/17 11:02:48;;;;;;;13.80;5.55;;;21.50;96.80;;;;;;5046400;28;20037;-45
2022/05/17 11:05:26;;;;;;;8.05;4.28;;;21.40;97.10;;;;;;5049588;28;20049;-46
2022/05/17 11:08:10;;;;;;;15.38;5.50;;;21.40;97.10;;;;;;5053456;28;20037;-46
2022/05/17 11:10:45;;;;;;;13.75;5.32;;;21.40;97.10;;;;;;5062324;28;20037;-46
2022/05/17 11:13:21;;;;;;;13.90;4.93;;;21.30;97.40;;;;;;5057414;28;20037;-46
2022/05/17 11:15:53;;;;;;;22.55;6.55;;;21.40;98.20;;;;;;5045808;28;20387;-47
2022/05/17 11:18:37;;;;;;;11.50;5.70;;;21.40;98.30;;;;;;5058740;28;20044;-45
2022/05/17 11:21:12;;;;;;;15.13;5.35;;;21.30;98.60;;;;;;5061936;28;20053;-46
2022/05/17 11:24:00;;;;;;;11.90;5.03;;;21.30;98.20;;;;;;5061568;28;20094;-46
2022/05/17 11:27:04;;;;;;;13.73;6.18;;;21.30;97.90;;;;;;5060519;28;20068;-46
2022/05/17 11:29:45;;;;;;;13.80;4.97;;;21.20;97.90;;;;;;5049616;28;20033;-45
2022/05/17 11:32:32;;;;;;;12.65;6.10;;;21.10;98.20;;;;;;5045435;28;20312;-47
2022/05/17 11:35:02;;;;;;;12.27;5.88;;;21.10;99.00;;;;;;5061138;28;20048;-46
2022/05/17 11:37:33;;;;;;;17.05;6.60;;;21.00;98.80;;;;;;5063652;28;20040;-46
2022/05/17 11:40:08;;;;;;;11.88;7.25;;;20.90;99.20;;;;;;5063169;28;20047;-45
2022/05/17 11:45:50;;;;;;;16.30;7.68;;;20.70;99.80;;;;;;5045176;28;20401;-45
2022/05/17 11:48:19;;;;;;;16.52;6.35;;;20.50;99.90;;;;;;5046023;28;20056;-46
2022/05/17 11:50:51;;;;;;;16.17;6.95;;;20.50;99.90;;;;;;5044731;28;20128;-45
2022/05/17 11:53:22;;;;;;;18.10;6.90;;;20.40;99.90;;;;;;5055979;28;20045;-45
2022/05/17 11:56:13;;;;;;;13.90;6.55;;;20.30;99.90;;;;;;5048105;28;20051;-45
2022/05/17 11:58:40;;;;;;;14.50;7.50;;;20.20;99.90;;;;;;5024602;28;20567;-46
2022/05/17 12:01:35;;;;;;;12.40;6.45;;;20.10;99.90;;;;;;5063976;28;20040;-46
2022/05/17 12:04:21;;;;;;;15.32;8.43;;;20.10;99.90;;;;;;5048797;28;20044;-46
2022/05/17 12:06:55;;;;;;;15.32;6.88;;;20.10;99.90;;;;;;5045266;28;20057;-45
2022/05/17 12:09:27;;;;;;;17.75;7.50;;;20.10;99.90;;;;;;5047193;28;20045;-45
2022/05/17 12:12:16;;;;;;;14.10;6.10;;;20.10;99.90;;;;;;5045349;28;20116;-46
2022/05/17 12:15:03;;;;;;;14.02;7.18;;;20.10;99.90;;;;;;5055557;28;20115;-45
2022/05/17 12:17:33;;;;;;;;;;;20.10;99.90;;;;;;5086379;28;20081;-46
2022/05/17 12:20:26;;;;;;;12.63;4.75;;;20.10;99.90;;;;;;5066317;28;19917;-47
2022/05/17 12:23:05;;;;;;;15.23;5.53;;;20.20;99.90;;;;;;5063829;28;20052;-47
2022/05/17 12:26:02;;;;;;;15.43;6.07;;;20.20;99.90;;;;;;5064709;28;20044;-46
2022/05/17 12:28:35;;;;;;;8.50;4.25;;;20.20;99.90;;;;;;5067490;28;20071;-46
2022/05/17 12:31:05;;;;;;;9.00;4.47;;;20.20;99.90;;;;;;5065360;28;20493;-46
2022/05/17 12:33:47;;;;;;;11.48;4.43;;;20.20;99.90;;;;;;5052752;28;20055;-46
2022/05/17 12:36:15;;;;;;;10.65;4.82;;;20.10;99.90;;;;;;5044438;28;20559;-46
2022/05/17 12:44:20;;;;;;;11.95;4.90;;;20.00;99.90;;;;;;5053469;28;20052;-46
2022/05/17 12:46:48;;;;;;;11.52;4.38;;;20.00;99.90;;;;;;5055503;28;20108;-46
2022/05/17 12:49:18;;;;;;;14.65;4.85;;;20.10;99.90;;;;;;5053025;28;20029;-46
2022/05/17 12:51:49;;;;;;;6.35;2.92;;;20.00;99.90;;;;;;5057099;28;20049;-46
2022/05/17 12:54:19;;;;;;;9.65;3.83;;;20.00;99.90;;;;;;5051497;28;20044;-46
2022/05/17 12:56:47;;;;;;;6.10;1.88;;;20.00;99.90;;;;;;5057778;28;20028;-45
2022/05/17 12:59:13;;;;;;;6.57;1.75;;;20.00;99.90;;;;;;5051928;28;20048;-45
2022/05/17 13:01:51;;;;;;;4.43;1.17;;;20.00;99.90;;;;;;5060160;28;20505;-47
2022/05/17 13:04:25;;;;;;;11.70;1.33;;;19.90;99.60;;;;;;5046414;28;20123;-46
2022/05/17 13:06:51;;;;;;;7.25;1.52;;;19.90;99.40;;;;;;5029759;28;20124;-46
2022/05/17 13:09:23;;;;;;;6.85;1.75;;;19.90;99.90;;;;;;5052659;28;20115;-46
2022/05/17 13:11:56;;;;;;;6.22;0.90;;;20.00;99.80;;;;;;5059981;28;20112;-46
2022/05/17 13:14:30;;;;;;;5.70;1.17;;;20.00;99.00;;;;;;5050751;28;20037;-45
2022/05/17 13:17:07;;;;;;;4.72;1.20;;;20.10;99.10;;;;;;5055061;28;20048;-46
2022/05/17 13:19:33;;;;;;;5.93;1.42;;;20.10;99.60;;;;;;5050194;28;20179;-47
2022/05/17 13:21:59;;;;;;;5.50;1.08;;;20.20;99.70;;;;;;5050840;28;20060;-45